Donnybrook, North Dakota
Current Conditions -  °F | °C
As of 6:33 PM on Tuesday 25 Nov 2014 (Local Time) from KMIB Reporting Station
Light Snow Light Snow  
Wind Chill:   Ceiling: 1200
Heat Index: 19°   Visibility: 7mi
Dew Point: 18°   Wind: 22mph
Humidity: 93%   Direction: 20°NNE
Pressure: 29.95"   Gusts: NA
Location:  48.51°N, 101.89°W
Report Text: KMIB 260033Z AUTO 02019KT 7SM R11/5500FT -SN FEW003 BKN012 OVC021 M07/M08 A2995 RMK AO2 VIS 1/2 RWY29 UPB0008E0014SNE0008B0014 CIG 008V012
Loading
Personal Weather Stations






























Interactive Weather Map New forecast layout! Learn more

10-Day Weather Forecast

Advertisements
Track Severe Weather on mobile